Time;durP1;ratioP1;P1;durP2;ratioP2;P2;SDS_P1;SDS_P2;PMS_P1;PMS_P2;Temp;Humidity;BMP_temperature;BMP_pressure;BME280_temperature;BME280_humidity;BME280_pressure;Samples;Min_cycle;Max_cycle;Signal;HPM_P1;HPM_P2
2023/05/30 00:02:15;;;;;;;9.73;3.90;;;16.10;92.60;;;;;;5131584;27;20821;-66
2023/05/30 00:04:40;;;;;;;8.53;4.23;;;16.00;93.60;;;;;;5131354;27;20467;-65
2023/05/30 00:07:06;;;;;;;10.47;4.03;;;16.00;94.00;;;;;;5131404;27;20358;-65
2023/05/30 00:09:32;;;;;;;5.37;3.33;;;15.90;94.40;;;;;;5131525;27;20174;-65
2023/05/30 00:11:58;;;;;;;5.43;4.33;;;15.90;94.30;;;;;;5131390;27;20939;-65
2023/05/30 00:14:26;;;;;;;11.07;3.93;;;15.80;94.90;;;;;;5131323;27;20191;-65
2023/05/30 00:16:52;;;;;;;7.87;4.20;;;15.80;95.60;;;;;;5130957;27;20993;-65
2023/05/30 00:19:19;;;;;;;6.00;3.90;;;15.80;95.50;;;;;;5131136;27;21255;-66
2023/05/30 00:21:45;;;;;;;5.27;4.20;;;15.70;96.20;;;;;;5131045;27;20187;-65
2023/05/30 00:24:11;;;;;;;5.33;4.00;;;15.70;96.30;;;;;;5130872;27;20465;-65
2023/05/30 00:26:55;;;;;;;7.17;4.37;;;15.70;96.20;;;;;;5112499;27;20807;-66
2023/05/30 00:29:21;;;;;;;9.00;4.17;;;15.70;95.60;;;;;;5130804;27;20581;-65
2023/05/30 00:31:47;;;;;;;9.03;4.47;;;15.80;95.40;;;;;;5131077;27;20416;-65
2023/05/30 00:34:12;;;;;;;5.00;3.63;;;15.80;95.80;;;;;;5130771;27;20192;-65
2023/05/30 00:36:38;;;;;;;4.60;3.70;;;15.80;95.70;;;;;;5112229;27;20185;-65
2023/05/30 00:39:03;;;;;;;7.60;4.30;;;15.70;96.10;;;;;;5130715;27;20176;-65
2023/05/30 00:41:29;;;;;;;9.07;4.03;;;15.60;97.40;;;;;;5130457;27;20230;-65
2023/05/30 00:43:55;;;;;;;6.90;3.97;;;15.50;99.10;;;;;;5112110;27;20284;-64
2023/05/30 00:46:23;;;;;;;8.53;3.93;;;15.40;99.30;;;;;;5130636;27;20277;-65
2023/05/30 00:48:49;;;;;;;6.80;3.77;;;15.30;99.30;;;;;;5112456;27;20207;-65
2023/05/30 00:51:17;;;;;;;6.00;4.43;;;15.30;99.10;;;;;;5130298;27;20424;-64
2023/05/30 00:53:43;;;;;;;8.20;4.00;;;15.30;99.70;;;;;;5129676;27;20198;-65
2023/05/30 00:56:10;;;;;;;6.90;3.77;;;15.30;99.80;;;;;;5130587;27;20477;-65
2023/05/30 00:58:38;;;;;;;5.67;3.90;;;15.30;99.90;;;;;;5112280;27;20539;-64
2023/05/30 01:01:04;;;;;;;7.90;4.27;;;15.20;99.90;;;;;;5130993;27;20417;-65
2023/05/30 01:03:32;;;;;;;8.60;4.40;;;15.10;99.90;;;;;;5130873;27;20503;-64
2023/05/30 01:06:00;;;;;;;7.60;4.50;;;14.90;99.90;;;;;;5112179;27;20424;-65
2023/05/30 01:08:26;;;;;;;8.43;4.20;;;14.80;99.90;;;;;;5130749;27;20545;-64
2023/05/30 01:11:00;;;;;;;8.53;4.57;;;14.80;99.90;;;;;;5131118;27;20501;-64
2023/05/30 01:13:47;;;;;;;5.30;3.77;;;14.80;99.90;;;;;;5130762;27;20438;-65
2023/05/30 01:16:17;;;;;;;7.87;4.00;;;14.60;99.90;;;;;;5130596;27;21001;-65
2023/05/30 01:18:52;;;;;;;9.03;3.63;;;14.60;99.90;;;;;;5130597;27;20884;-65
2023/05/30 01:21:21;;;;;;;7.80;4.30;;;14.50;99.90;;;;;;5130752;27;20502;-65
2023/05/30 01:24:06;;;;;;;5.20;3.70;;;14.50;99.90;;;;;;5130493;27;20491;-64
2023/05/30 01:26:53;;;;;;;6.37;4.10;;;14.40;99.90;;;;;;5112341;27;20866;-64
2023/05/30 01:29:21;;;;;;;7.77;4.23;;;14.20;99.90;;;;;;5130600;27;20424;-66
2023/05/30 01:31:47;;;;;;;9.63;4.40;;;14.00;99.90;;;;;;5130464;27;20412;-65
2023/05/30 01:34:14;;;;;;;7.37;4.30;;;13.90;99.90;;;;;;5130503;27;21002;-66
2023/05/30 01:36:40;;;;;;;8.70;5.07;;;13.90;99.90;;;;;;5130429;27;20506;-67
2023/05/30 01:39:05;;;;;;;5.47;4.43;;;13.70;99.90;;;;;;5130119;27;20451;-66
2023/05/30 01:42:02;;;;;;;7.63;4.10;;;13.60;99.90;;;;;;5129657;27;20288;-66
2023/05/30 01:44:47;;;;;;;8.60;4.03;;;13.60;99.90;;;;;;5129516;27;20208;-65
2023/05/30 01:47:28;;;;;;;9.37;4.30;;;13.50;99.90;;;;;;5129756;27;20517;-66
2023/05/30 01:50:17;;;;;;;8.43;4.40;;;13.30;99.90;;;;;;5129655;27;20452;-65
2023/05/30 01:52:47;;;;;;;6.03;3.90;;;13.30;99.90;;;;;;5129636;28;20449;-65
2023/05/30 01:55:15;;;;;;;10.17;4.40;;;13.20;99.90;;;;;;5129673;28;20402;-66
2023/05/30 01:57:47;;;;;;;8.73;3.87;;;13.20;99.90;;;;;;5129651;27;20435;-66
2023/05/30 02:00:14;;;;;;;6.57;4.10;;;13.30;99.90;;;;;;5129763;28;20482;-65
2023/05/30 02:02:44;;;;;;;10.43;4.63;;;13.40;99.90;;;;;;5129666;27;20517;-65
2023/05/30 02:05:10;;;;;;;5.70;4.30;;;13.40;99.90;;;;;;5132146;27;20462;-66
2023/05/30 02:07:36;;;;;;;7.43;4.13;;;13.30;99.90;;;;;;5133949;27;20434;-66
2023/05/30 02:10:02;;;;;;;9.50;4.13;;;13.40;99.90;;;;;;5133768;27;20881;-66
2023/05/30 02:12:27;;;;;;;6.60;4.90;;;13.30;99.90;;;;;;5133813;27;20241;-65
2023/05/30 02:14:54;;;;;;;6.83;4.33;;;13.30;99.90;;;;;;5133513;27;20430;-65
2023/05/30 02:17:23;;;;;;;13.50;5.90;;;13.10;99.90;;;;;;5133498;27;20200;-65
2023/05/30 02:19:49;;;;;;;8.40;4.97;;;12.80;99.90;;;;;;5133435;27;20452;-66
2023/05/30 02:22:16;;;;;;;5.77;3.90;;;12.80;99.90;;;;;;5133477;27;20423;-65
2023/05/30 02:24:41;;;;;;;7.27;4.23;;;12.70;99.90;;;;;;5133317;27;20872;-65
2023/05/30 02:27:08;;;;;;;9.37;4.40;;;12.70;99.90;;;;;;5133479;27;20468;-65
2023/05/30 02:29:33;;;;;;;5.37;3.63;;;12.80;99.90;;;;;;5133373;27;20177;-65
2023/05/30 02:31:59;;;;;;;12.10;4.60;;;12.80;99.90;;;;;;5133353;27;20414;-65
2023/05/30 02:34:24;;;;;;;11.77;4.73;;;12.70;99.90;;;;;;5133515;27;20191;-66
2023/05/30 02:36:50;;;;;;;8.90;4.40;;;12.70;99.90;;;;;;5133285;27;20642;-66
2023/05/30 02:39:16;;;;;;;12.93;3.90;;;12.60;99.90;;;;;;5133022;27;20183;-65
2023/05/30 02:41:41;;;;;;;8.60;4.57;;;12.60;99.90;;;;;;5133213;27;20212;-66
2023/05/30 02:44:07;;;;;;;6.83;4.23;;;12.60;99.90;;;;;;5133293;27;20220;-65
2023/05/30 02:46:34;;;;;;;10.27;4.40;;;12.60;99.90;;;;;;5133348;27;20178;-65
2023/05/30 02:49:01;;;;;;;6.00;4.53;;;12.50;99.90;;;;;;5133704;27;20179;-65
2023/05/30 02:51:26;;;;;;;6.60;4.27;;;12.50;99.90;;;;;;5115285;27;20450;-65
2023/05/30 02:54:01;;;;;;;6.23;4.13;;;12.40;99.90;;;;;;5133483;27;20836;-67
2023/05/30 02:56:27;;;;;;;7.13;4.97;;;12.20;99.90;;;;;;5133274;27;20208;-65
2023/05/30 02:58:59;;;;;;;6.37;4.73;;;12.10;99.90;;;;;;5133131;27;20430;-65
2023/05/30 03:01:24;;;;;;;7.50;4.90;;;12.00;99.90;;;;;;5133448;27;20423;-65
2023/05/30 03:03:50;;;;;;;10.30;5.13;;;12.10;99.90;;;;;;5115053;27;20467;-65
2023/05/30 03:06:16;;;;;;;7.60;4.30;;;12.00;99.90;;;;;;5133172;27;20725;-66
2023/05/30 03:08:45;;;;;;;9.53;5.13;;;12.00;99.90;;;;;;5133369;27;20422;-65
2023/05/30 03:11:11;;;;;;;9.10;4.47;;;11.90;99.90;;;;;;5133474;27;20434;-65
2023/05/30 03:13:37;;;;;;;6.60;4.77;;;12.00;99.90;;;;;;5133432;27;20454;-67
2023/05/30 03:16:02;;;;;;;10.10;5.03;;;12.10;99.90;;;;;;5132938;27;20201;-65
2023/05/30 03:18:28;;;;;;;12.10;4.80;;;12.10;99.90;;;;;;5115401;27;20423;-65
2023/05/30 03:20:54;;;;;;;10.03;5.03;;;12.30;99.90;;;;;;5134136;27;20185;-65
2023/05/30 03:23:20;;;;;;;11.13;4.60;;;12.30;99.90;;;;;;5133758;27;20181;-65
2023/05/30 03:25:46;;;;;;;6.17;4.50;;;12.20;99.90;;;;;;5115086;27;20461;-64
2023/05/30 03:28:11;;;;;;;6.20;4.60;;;12.20;99.90;;;;;;5133549;27;20204;-65
2023/05/30 03:30:37;;;;;;;8.10;4.33;;;12.10;99.90;;;;;;5133662;27;20180;-65
2023/05/30 03:33:03;;;;;;;7.40;4.70;;;12.10;99.90;;;;;;5133591;27;20177;-64
2023/05/30 03:35:28;;;;;;;8.40;4.77;;;11.90;99.90;;;;;;5133384;27;20264;-65
2023/05/30 03:37:54;;;;;;;10.87;4.80;;;11.90;99.90;;;;;;5114704;27;20561;-65
2023/05/30 03:40:19;;;;;;;11.17;5.13;;;12.00;99.90;;;;;;5132982;27;20192;-64
2023/05/30 03:42:45;;;;;;;7.93;4.80;;;12.00;99.90;;;;;;5132611;27;20558;-65
2023/05/30 03:45:11;;;;;;;8.00;4.67;;;12.00;99.90;;;;;;5114416;27;20327;-65
2023/05/30 03:47:37;;;;;;;7.20;4.90;;;12.00;99.90;;;;;;5132916;27;20430;-66
2023/05/30 03:50:03;;;;;;;8.20;4.30;;;11.90;99.90;;;;;;5132743;27;20637;-66
2023/05/30 03:52:29;;;;;;;6.13;4.00;;;12.00;99.90;;;;;;5132339;27;20188;-66
2023/05/30 03:54:55;;;;;;;9.50;4.53;;;12.10;99.90;;;;;;5131860;27;20421;-65
2023/05/30 03:57:20;;;;;;;8.43;4.00;;;12.10;99.90;;;;;;5132244;27;20434;-67
2023/05/30 03:59:47;;;;;;;6.33;4.33;;;12.20;99.90;;;;;;5113587;27;20186;-65
2023/05/30 04:02:13;;;;;;;6.70;4.83;;;12.20;99.90;;;;;;5131918;27;20590;-65
2023/05/30 04:04:39;;;;;;;8.83;4.50;;;12.20;99.90;;;;;;5131877;27;20457;-65
2023/05/30 04:07:06;;;;;;;8.27;4.70;;;12.10;99.90;;;;;;5131720;27;20189;-65
2023/05/30 04:09:31;;;;;;;9.17;4.60;;;12.10;99.90;;;;;;5131962;27;20417;-66
2023/05/30 04:11:57;;;;;;;14.13;5.37;;;12.00;99.90;;;;;;5131813;27;20947;-65
2023/05/30 04:14:22;;;;;;;7.20;4.97;;;12.00;99.90;;;;;;5132187;27;20261;-65
2023/05/30 04:16:48;;;;;;;6.37;4.67;;;12.00;99.90;;;;;;5131680;27;20672;-65
2023/05/30 04:19:13;;;;;;;7.43;4.93;;;12.10;99.90;;;;;;5131923;27;20181;-65
2023/05/30 04:21:39;;;;;;;17.20;5.00;;;12.20;99.90;;;;;;5131505;27;20190;-65
2023/05/30 04:24:07;;;;;;;6.83;4.83;;;12.30;99.90;;;;;;5131148;27;20208;-65
2023/05/30 04:26:33;;;;;;;8.20;5.40;;;12.30;99.90;;;;;;5131079;27;20198;-65
2023/05/30 04:28:58;;;;;;;8.60;4.97;;;12.30;99.90;;;;;;5131153;27;20427;-65
2023/05/30 04:31:24;;;;;;;6.80;4.93;;;12.40;99.90;;;;;;5131222;27;20415;-65
2023/05/30 04:33:54;;;;;;;10.73;5.20;;;12.40;99.90;;;;;;5131005;27;20184;-65
2023/05/30 04:36:20;;;;;;;6.27;4.43;;;12.40;99.90;;;;;;5130975;27;20421;-64
2023/05/30 04:38:48;;;;;;;7.93;4.67;;;12.30;99.90;;;;;;5131192;27;20520;-65
2023/05/30 04:41:19;;;;;;;18.67;5.80;;;12.40;99.90;;;;;;5130778;27;20184;-65
2023/05/30 04:43:52;;;;;;;6.83;4.40;;;12.40;99.90;;;;;;5130931;27;20479;-66
2023/05/30 04:46:21;;;;;;;10.00;4.77;;;12.40;99.90;;;;;;5130629;27;20414;-66
2023/05/30 04:48:48;;;;;;;7.73;5.13;;;12.50;99.90;;;;;;5111803;27;20499;-66
2023/05/30 04:51:14;;;;;;;6.83;4.53;;;12.60;99.90;;;;;;5130825;27;20419;-66
2023/05/30 04:53:40;;;;;;;5.67;4.30;;;12.70;99.90;;;;;;5130692;27;20970;-65
2023/05/30 04:56:06;;;;;;;7.53;5.10;;;12.80;99.90;;;;;;5131067;27;20410;-65
2023/05/30 04:58:32;;;;;;;7.23;4.50;;;12.80;99.90;;;;;;5130991;27;20934;-66
2023/05/30 05:00:58;;;;;;;7.30;4.73;;;12.80;99.90;;;;;;5131188;27;20937;-65
2023/05/30 05:03:25;;;;;;;7.37;4.87;;;12.90;99.90;;;;;;5131021;27;20177;-66
2023/05/30 05:05:50;;;;;;;6.47;4.07;;;13.00;99.90;;;;;;5130825;27;20494;-66
2023/05/30 05:08:16;;;;;;;8.27;4.70;;;13.10;99.90;;;;;;5130846;27;20493;-67
2023/05/30 05:10:41;;;;;;;7.13;4.90;;;13.20;99.90;;;;;;5130796;27;20189;-66
2023/05/30 05:13:07;;;;;;;6.23;4.80;;;13.30;99.90;;;;;;5130802;27;20181;-66
2023/05/30 05:15:33;;;;;;;9.37;4.93;;;13.30;99.90;;;;;;5130694;27;20625;-67
2023/05/30 05:17:58;;;;;;;13.43;5.37;;;13.30;99.90;;;;;;5130484;27;20211;-67
2023/05/30 05:20:24;;;;;;;11.10;4.97;;;13.40;99.90;;;;;;5130461;27;20669;-65
2023/05/30 05:22:50;;;;;;;20.47;5.73;;;13.60;99.90;;;;;;5130597;27;20188;-66
2023/05/30 05:25:16;;;;;;;10.80;5.37;;;13.70;99.90;;;;;;5130552;27;20211;-65
2023/05/30 05:27:42;;;;;;;18.30;5.20;;;13.80;99.90;;;;;;5130549;27;21018;-65
2023/05/30 05:30:08;;;;;;;11.20;4.83;;;14.00;99.90;;;;;;5130480;27;20649;-66
2023/05/30 05:32:36;;;;;;;12.60;5.40;;;14.00;99.90;;;;;;5130788;27;20414;-66
2023/05/30 05:35:03;;;;;;;10.30;4.43;;;14.20;99.90;;;;;;5130401;27;20429;-66
2023/05/30 05:37:28;;;;;;;10.23;5.60;;;14.30;99.90;;;;;;5130379;27;20528;-66
2023/05/30 05:39:54;;;;;;;9.00;4.63;;;14.30;99.90;;;;;;5130414;27;20507;-66
2023/05/30 05:42:19;;;;;;;15.83;5.70;;;14.40;99.90;;;;;;5130188;27;20674;-67
2023/05/30 05:44:45;;;;;;;7.23;5.20;;;14.50;99.90;;;;;;5130162;27;20753;-65
2023/05/30 05:47:10;;;;;;;13.23;5.17;;;14.60;99.90;;;;;;5130243;27;20202;-66
2023/05/30 05:49:36;;;;;;;10.03;5.10;;;14.60;99.90;;;;;;5130384;27;20187;-66
2023/05/30 05:52:02;;;;;;;6.97;4.87;;;14.60;99.90;;;;;;5130135;28;20684;-66
2023/05/30 05:54:27;;;;;;;12.00;5.77;;;14.70;99.90;;;;;;5130114;28;20194;-66
2023/05/30 05:56:53;;;;;;;7.47;4.60;;;14.80;99.90;;;;;;5130147;27;20210;-65
2023/05/30 05:59:18;;;;;;;14.53;5.00;;;14.80;99.90;;;;;;5129975;27;20186;-66
2023/05/30 06:01:44;;;;;;;15.70;5.87;;;14.90;99.90;;;;;;5129752;28;20173;-65
2023/05/30 06:04:11;;;;;;;8.03;5.10;;;15.00;99.90;;;;;;5129752;28;20306;-66
2023/05/30 06:06:37;;;;;;;8.63;5.23;;;15.10;99.90;;;;;;5111056;27;20187;-66
2023/05/30 06:09:03;;;;;;;7.50;5.33;;;15.20;99.90;;;;;;5111169;28;20527;-65
2023/05/30 06:11:29;;;;;;;10.17;4.90;;;15.30;99.90;;;;;;5129586;28;21245;-65
2023/05/30 06:13:54;;;;;;;12.03;4.63;;;15.60;99.90;;;;;;5129878;28;20418;-65
2023/05/30 06:16:20;;;;;;;9.90;5.97;;;15.70;99.90;;;;;;5129479;28;20247;-65
2023/05/30 06:18:45;;;;;;;8.97;5.20;;;15.70;99.90;;;;;;5129647;27;20207;-65
2023/05/30 06:21:11;;;;;;;7.63;4.50;;;15.70;99.90;;;;;;5129748;28;20993;-65
2023/05/30 06:23:37;;;;;;;9.80;4.90;;;15.80;99.90;;;;;;5129695;28;20205;-66
2023/05/30 06:26:03;;;;;;;6.40;4.50;;;15.90;99.90;;;;;;5129642;28;20182;-65
2023/05/30 06:28:28;;;;;;;10.43;5.60;;;16.00;99.90;;;;;;5129455;27;20223;-66
2023/05/30 06:30:54;;;;;;;11.17;5.13;;;16.10;99.90;;;;;;5129393;28;20448;-65
2023/05/30 06:33:23;;;;;;;8.87;4.63;;;16.10;99.90;;;;;;5129369;27;20642;-65
2023/05/30 06:35:48;;;;;;;14.83;5.23;;;16.00;99.90;;;;;;5129351;28;20184;-65
2023/05/30 06:38:16;;;;;;;11.30;4.97;;;16.10;99.90;;;;;;5129545;27;20494;-66
2023/05/30 06:40:42;;;;;;;7.53;4.80;;;16.10;99.90;;;;;;5129427;28;20642;-66
2023/05/30 06:43:07;;;;;;;7.73;5.17;;;16.20;99.90;;;;;;5129509;28;20444;-65
2023/05/30 06:45:33;;;;;;;10.07;5.10;;;16.30;99.90;;;;;;5129263;28;20554;-65
2023/05/30 06:47:59;;;;;;;10.87;5.03;;;16.40;99.90;;;;;;5129137;27;20715;-65
2023/05/30 06:50:25;;;;;;;13.63;4.43;;;16.40;99.90;;;;;;5129484;27;20175;-65
2023/05/30 06:52:50;;;;;;;11.03;5.00;;;16.60;99.90;;;;;;5133161;27;20427;-65
2023/05/30 06:55:16;;;;;;;9.97;5.40;;;16.70;99.90;;;;;;5133130;27;20189;-66
2023/05/30 06:57:44;;;;;;;14.33;4.97;;;16.70;99.90;;;;;;5115178;27;20203;-65
2023/05/30 07:00:10;;;;;;;9.10;4.83;;;16.70;99.90;;;;;;5133489;27;20180;-65
2023/05/30 07:02:36;;;;;;;12.70;5.20;;;16.70;99.90;;;;;;5133334;27;20420;-65
2023/05/30 07:05:02;;;;;;;10.27;5.20;;;16.80;99.90;;;;;;5133473;27;20585;-67
2023/05/30 07:07:27;;;;;;;11.47;5.70;;;16.90;99.90;;;;;;5133321;27;20237;-64
2023/05/30 07:09:53;;;;;;;7.33;5.13;;;17.00;99.90;;;;;;5133250;27;20204;-65
2023/05/30 07:12:19;;;;;;;9.57;5.47;;;17.00;99.90;;;;;;5133307;27;20200;-65
2023/05/30 07:14:44;;;;;;;9.17;5.20;;;17.20;99.90;;;;;;5133647;27;20595;-65
2023/05/30 07:17:10;;;;;;;8.60;5.07;;;17.20;99.90;;;;;;5133661;27;20200;-65
2023/05/30 07:19:36;;;;;;;14.97;4.77;;;17.20;99.90;;;;;;5133787;27;20530;-65
2023/05/30 07:22:01;;;;;;;10.40;5.10;;;17.30;99.90;;;;;;5133916;27;20522;-65
2023/05/30 07:24:27;;;;;;;8.07;4.80;;;17.40;99.90;;;;;;5133794;27;20457;-65
2023/05/30 07:26:52;;;;;;;7.10;4.43;;;17.50;99.90;;;;;;5133745;27;20527;-66
2023/05/30 07:29:18;;;;;;;9.20;4.80;;;17.50;99.90;;;;;;5133754;27;20171;-65
2023/05/30 07:31:44;;;;;;;9.63;5.50;;;17.60;99.90;;;;;;5133642;27;20178;-65
2023/05/30 07:34:10;;;;;;;10.90;4.80;;;17.60;99.90;;;;;;5133394;27;20184;-66
2023/05/30 07:36:36;;;;;;;7.50;5.00;;;17.60;99.90;;;;;;5133288;27;20788;-66
2023/05/30 07:39:02;;;;;;;11.03;4.70;;;17.70;99.90;;;;;;5114488;27;20430;-66
2023/05/30 07:41:27;;;;;;;8.17;4.60;;;17.70;99.90;;;;;;5132745;27;20203;-66
2023/05/30 07:43:53;;;;;;;9.60;5.07;;;17.80;99.90;;;;;;5132756;27;20413;-66
2023/05/30 07:46:20;;;;;;;12.20;4.67;;;18.00;99.90;;;;;;5132825;27;20168;-66
2023/05/30 07:48:45;;;;;;;9.87;5.60;;;17.90;99.90;;;;;;5132340;27;20200;-65
2023/05/30 07:51:12;;;;;;;9.30;5.00;;;18.10;99.90;;;;;;5132607;27;20425;-65
2023/05/30 07:53:37;;;;;;;11.23;5.30;;;18.20;99.90;;;;;;5132634;27;20263;-65
2023/05/30 07:56:03;;;;;;;9.77;4.70;;;18.50;99.90;;;;;;5132344;27;20508;-65
2023/05/30 07:58:29;;;;;;;7.87;4.10;;;18.50;99.90;;;;;;5131825;27;20230;-65
2023/05/30 08:00:55;;;;;;;7.23;5.27;;;18.50;99.90;;;;;;5132364;27;20182;-66
2023/05/30 08:03:21;;;;;;;7.50;5.07;;;18.50;99.90;;;;;;5130639;27;20479;-66
2023/05/30 08:05:50;;;;;;;7.20;4.53;;;18.50;99.90;;;;;;5130660;27;21021;-66
2023/05/30 08:08:16;;;;;;;9.90;5.30;;;18.60;99.90;;;;;;5130522;27;20810;-66
2023/05/30 08:10:42;;;;;;;6.30;4.80;;;18.70;99.90;;;;;;5130484;27;20437;-66
2023/05/30 08:13:08;;;;;;;14.77;5.20;;;19.00;99.90;;;;;;5130362;27;20438;-66
2023/05/30 08:15:34;;;;;;;12.77;4.73;;;19.00;99.80;;;;;;5130310;27;20181;-66
2023/05/30 08:18:00;;;;;;;10.40;5.10;;;19.00;99.90;;;;;;5130100;27;20208;-67
2023/05/30 08:20:26;;;;;;;17.23;4.77;;;19.00;99.90;;;;;;5130005;27;20498;-67
2023/05/30 08:22:51;;;;;;;7.03;4.73;;;19.10;99.30;;;;;;5130344;27;20414;-66
2023/05/30 08:25:23;;;;;;;11.93;4.37;;;19.00;99.00;;;;;;5130408;27;20562;-67
2023/05/30 08:27:53;;;;;;;9.50;5.33;;;19.30;99.20;;;;;;5130234;27;20608;-67
2023/05/30 08:30:19;;;;;;;9.87;5.33;;;19.40;97.40;;;;;;5130471;27;20474;-67
2023/05/30 08:32:45;;;;;;;9.73;5.43;;;19.50;97.40;;;;;;5111486;27;20460;-66
2023/05/30 08:35:11;;;;;;;9.93;4.27;;;19.70;97.00;;;;;;5130417;27;20918;-66
2023/05/30 08:37:36;;;;;;;10.20;4.90;;;19.80;97.70;;;;;;5130050;27;20202;-66
2023/05/30 08:40:02;;;;;;;9.50;6.13;;;20.00;97.50;;;;;;5130075;27;20189;-66
2023/05/30 08:42:28;;;;;;;9.67;4.90;;;20.00;97.00;;;;;;5129543;27;20196;-66
2023/05/30 08:44:54;;;;;;;12.70;5.50;;;20.10;97.00;;;;;;5129214;27;20461;-66
2023/05/30 08:47:21;;;;;;;9.20;5.20;;;20.30;96.40;;;;;;5129188;27;20203;-66
2023/05/30 08:49:51;;;;;;;8.13;4.77;;;20.50;96.50;;;;;;5129168;27;20184;-66
2023/05/30 08:52:18;;;;;;;12.77;5.30;;;20.50;96.60;;;;;;5128991;27;20836;-66
2023/05/30 08:55:13;;;;;;;6.60;4.60;;;20.60;95.70;;;;;;5128930;27;20417;-66
2023/05/30 08:57:54;;;;;;;7.03;4.50;;;20.70;94.40;;;;;;5128592;27;20432;-66
2023/05/30 09:00:21;;;;;;;9.60;5.80;;;20.80;95.00;;;;;;5128940;27;20459;-65
2023/05/30 09:02:51;;;;;;;7.53;4.50;;;20.90;96.00;;;;;;5129036;27;20414;-66
2023/05/30 09:05:17;;;;;;;16.90;4.87;;;20.80;94.40;;;;;;5128674;27;20462;-65
2023/05/30 09:07:47;;;;;;;9.77;5.77;;;21.00;93.90;;;;;;5128833;27;20443;-66
2023/05/30 09:10:15;;;;;;;9.77;5.47;;;21.20;94.30;;;;;;5128745;27;20423;-66
2023/05/30 09:12:42;;;;;;;8.83;4.97;;;21.40;93.70;;;;;;5128549;27;20458;-65
2023/05/30 09:15:07;;;;;;;8.90;4.50;;;21.60;92.10;;;;;;5128185;27;20467;-68
2023/05/30 09:17:33;;;;;;;12.00;5.20;;;21.80;92.50;;;;;;5128556;27;20477;-65
2023/05/30 09:19:59;;;;;;;7.53;4.83;;;21.80;92.40;;;;;;5128453;27;20418;-65
2023/05/30 09:22:27;;;;;;;9.17;4.53;;;22.20;91.70;;;;;;5128352;27;20177;-66
2023/05/30 09:25:03;;;;;;;10.40;5.30;;;22.30;91.00;;;;;;5128182;27;20465;-66
2023/05/30 09:27:33;;;;;;;13.67;5.70;;;22.50;91.10;;;;;;5128582;27;20476;-66
2023/05/30 09:30:09;;;;;;;9.03;5.77;;;22.90;90.90;;;;;;5128445;27;20483;-66
2023/05/30 09:32:36;;;;;;;10.80;4.73;;;22.70;89.10;;;;;;5128707;27;20797;-66
2023/05/30 09:35:10;;;;;;;6.47;4.57;;;22.90;88.60;;;;;;5128632;27;20775;-66
2023/05/30 09:37:37;;;;;;;14.03;5.83;;;23.20;86.50;;;;;;5128243;27;20451;-66
2023/05/30 09:40:10;;;;;;;13.23;5.60;;;23.20;86.60;;;;;;5128150;27;20981;-66
2023/05/30 09:42:47;;;;;;;8.60;4.67;;;23.40;84.30;;;;;;5128176;27;20463;-66
2023/05/30 09:45:16;;;;;;;7.37;4.40;;;23.60;85.80;;;;;;5127956;27;20570;-66
2023/05/30 09:47:44;;;;;;;10.97;5.07;;;23.90;82.70;;;;;;5128126;27;20439;-66
2023/05/30 09:50:12;;;;;;;8.20;5.30;;;24.10;84.00;;;;;;5128304;27;20420;-66
2023/05/30 09:52:39;;;;;;;10.10;5.10;;;24.30;82.70;;;;;;5128197;27;20469;-66
2023/05/30 09:55:06;;;;;;;14.17;4.60;;;24.50;81.50;;;;;;5128370;28;20856;-66
2023/05/30 09:57:39;;;;;;;13.97;5.37;;;24.70;80.40;;;;;;5128094;27;20529;-66
2023/05/30 10:00:13;;;;;;;10.07;4.90;;;24.60;78.10;;;;;;5109782;28;20441;-66
2023/05/30 10:02:44;;;;;;;7.10;4.73;;;24.70;79.00;;;;;;5128300;28;20421;-66
2023/05/30 10:05:27;;;;;;;7.53;4.53;;;25.00;78.80;;;;;;5128748;27;20471;-65
2023/05/30 10:07:55;;;;;;;7.30;4.97;;;24.90;77.20;;;;;;5128826;27;20442;-65
2023/05/30 10:10:21;;;;;;;12.67;5.13;;;25.20;76.40;;;;;;5128630;28;20492;-66
2023/05/30 10:12:53;;;;;;;9.03;4.30;;;25.30;77.80;;;;;;5128688;28;20422;-67
2023/05/30 10:15:21;;;;;;;14.30;4.73;;;25.40;72.80;;;;;;5128794;28;20977;-67
2023/05/30 10:17:57;;;;;;;8.83;4.27;;;25.50;73.00;;;;;;5128111;27;20636;-67
2023/05/30 10:20:26;;;;;;;12.80;4.20;;;25.80;74.30;;;;;;5128199;28;20422;-66
2023/05/30 10:22:53;;;;;;;5.43;3.57;;;25.90;70.30;;;;;;5127497;28;20434;-66
2023/05/30 10:25:20;;;;;;;5.77;4.00;;;26.00;70.80;;;;;;5129507;27;20462;-66
2023/05/30 10:27:52;;;;;;;8.87;4.07;;;26.10;74.00;;;;;;5132459;27;21212;-66
2023/05/30 10:30:22;;;;;;;7.17;4.60;;;26.00;73.00;;;;;;5132575;27;20414;-66
2023/05/30 10:32:54;;;;;;;6.07;4.37;;;26.10;74.40;;;;;;5132154;27;20930;-65
2023/05/30 10:35:20;;;;;;;4.87;3.90;;;26.20;70.50;;;;;;5132575;27;20453;-66
2023/05/30 10:37:47;;;;;;;7.93;4.40;;;26.30;73.90;;;;;;5132667;27;20511;-65
2023/05/30 10:40:31;;;;;;;7.60;3.97;;;26.40;76.00;;;;;;5132311;27;20922;-67
2023/05/30 10:43:23;;;;;;;6.60;3.93;;;26.50;70.60;;;;;;5132224;27;20502;-67
2023/05/30 10:46:10;;;;;;;6.67;4.20;;;26.80;71.00;;;;;;5080411;27;20521;-66
2023/05/30 10:48:48;;;;;;;5.57;3.90;;;26.80;70.20;;;;;;5132724;27;20436;-65
2023/05/30 10:51:14;;;;;;;7.03;3.90;;;26.60;68.80;;;;;;5132827;27;20458;-65
2023/05/30 10:53:42;;;;;;;5.07;4.30;;;26.80;68.70;;;;;;5132859;27;20413;-66
2023/05/30 10:56:26;;;;;;;8.53;3.97;;;26.70;67.60;;;;;;5114218;27;20414;-66
2023/05/30 10:58:53;;;;;;;5.40;3.70;;;26.90;69.10;;;;;;5132878;27;20795;-66
2023/05/30 11:01:30;;;;;;;6.73;3.53;;;27.00;67.30;;;;;;5133012;27;20410;-66
2023/05/30 11:03:57;;;;;;;10.00;3.80;;;27.30;66.20;;;;;;5132893;27;20406;-66
2023/05/30 11:06:25;;;;;;;10.70;3.60;;;27.50;64.00;;;;;;5132605;27;20398;-66
2023/05/30 11:08:53;;;;;;;7.63;4.57;;;27.80;62.00;;;;;;5132628;27;20430;-68
2023/05/30 11:11:19;;;;;;;6.63;3.73;;;27.80;61.80;;;;;;5132546;27;20439;-67
2023/05/30 11:13:47;;;;;;;6.83;4.00;;;27.90;59.50;;;;;;5132445;27;20910;-67
2023/05/30 11:16:23;;;;;;;7.03;4.00;;;27.70;62.20;;;;;;5132381;27;20465;-67
2023/05/30 11:18:53;;;;;;;9.13;3.67;;;27.60;62.90;;;;;;5132214;27;20426;-67
2023/05/30 11:21:55;;;;;;;7.93;4.57;;;27.50;62.70;;;;;;5132176;27;20790;-67
2023/05/30 11:24:22;;;;;;;7.33;3.80;;;27.30;61.80;;;;;;5131947;27;20468;-67
2023/05/30 11:27:01;;;;;;;5.80;3.83;;;27.30;60.90;;;;;;5131821;27;20839;-68
2023/05/30 11:29:44;;;;;;;9.30;3.50;;;27.30;61.60;;;;;;5131711;27;20418;-66
2023/05/30 11:32:11;;;;;;;6.77;3.83;;;27.40;60.00;;;;;;5132232;27;20422;-66
2023/05/30 11:34:37;;;;;;;10.93;4.70;;;27.60;58.10;;;;;;5131894;27;20418;-65
2023/05/30 11:37:04;;;;;;;4.50;3.50;;;27.60;58.90;;;;;;5131078;27;20438;-65
2023/05/30 11:39:36;;;;;;;6.80;4.20;;;27.60;60.30;;;;;;5132052;27;20430;-67
2023/05/30 11:42:03;;;;;;;5.60;3.37;;;28.00;58.60;;;;;;5131715;27;20443;-67
2023/05/30 11:44:32;;;;;;;4.20;3.23;;;27.70;56.70;;;;;;5132569;27;20463;-67
2023/05/30 11:46:59;;;;;;;4.10;3.40;;;27.70;58.70;;;;;;5131724;27;20823;-67
2023/05/30 11:49:25;;;;;;;6.83;3.73;;;27.90;58.40;;;;;;5132050;27;20414;-65
2023/05/30 11:51:52;;;;;;;8.33;3.87;;;27.70;57.80;;;;;;5131628;27;20922;-68
2023/05/30 11:54:19;;;;;;;14.03;4.80;;;27.70;56.50;;;;;;5131870;27;20460;-67
2023/05/30 11:56:44;;;;;;;6.00;4.20;;;27.60;59.00;;;;;;5131442;27;20423;-67
2023/05/30 11:59:11;;;;;;;6.40;3.40;;;27.60;59.30;;;;;;5131818;27;20498;-67
2023/05/30 12:01:37;;;;;;;5.90;3.80;;;27.60;58.90;;;;;;5131670;27;20656;-67
2023/05/30 12:04:04;;;;;;;6.23;3.90;;;27.30;59.40;;;;;;5131614;27;20418;-66
2023/05/30 12:06:31;;;;;;;6.77;3.80;;;27.30;60.40;;;;;;5131404;27;20185;-66
2023/05/30 12:08:57;;;;;;;10.90;4.63;;;27.40;59.50;;;;;;5112725;27;21454;-69
2023/05/30 12:11:22;;;;;;;9.70;3.50;;;27.40;59.00;;;;;;5131151;27;20498;-66
2023/05/30 12:13:54;;;;;;;6.73;3.30;;;27.40;58.70;;;;;;5131009;27;20177;-66
2023/05/30 12:16:20;;;;;;;4.20;3.33;;;27.70;55.90;;;;;;5130689;27;20230;-67
2023/05/30 12:18:46;;;;;;;13.33;4.07;;;27.90;55.30;;;;;;5130539;27;20454;-65
2023/05/30 12:21:15;;;;;;;7.40;3.80;;;27.90;55.50;;;;;;5130503;27;20189;-65
2023/05/30 12:23:42;;;;;;;5.13;2.93;;;27.90;57.70;;;;;;5130387;27;20412;-66
2023/05/30 12:26:16;;;;;;;9.37;3.60;;;27.70;57.00;;;;;;5130359;27;20459;-67
2023/05/30 12:28:46;;;;;;;7.93;4.17;;;27.80;56.90;;;;;;5130084;27;20852;-67
2023/05/30 12:31:33;;;;;;;7.67;3.60;;;27.60;55.90;;;;;;5130430;27;20422;-69
2023/05/30 12:34:01;;;;;;;6.30;3.90;;;27.80;56.10;;;;;;5130399;27;20855;-67
2023/05/30 12:36:27;;;;;;;5.90;3.00;;;27.60;55.30;;;;;;5130263;27;20411;-68
2023/05/30 12:38:57;;;;;;;5.63;3.50;;;27.60;54.60;;;;;;5111595;27;20435;-67
2023/05/30 12:41:28;;;;;;;5.53;3.40;;;27.60;53.50;;;;;;5130066;27;20185;-67
2023/05/30 12:43:56;;;;;;;7.77;3.60;;;27.80;54.00;;;;;;5130165;27;20410;-67
2023/05/30 12:46:21;;;;;;;5.60;3.60;;;27.90;54.10;;;;;;5111646;27;20426;-67
2023/05/30 12:48:47;;;;;;;6.80;4.20;;;28.00;52.80;;;;;;5093796;27;20516;-67